^^
Station Historical Data
Daily Summary for January 7, 2018 Units:  Both    English   Metric
« Previous Day
Next Day »
Daily Weekly Monthly Yearly Custom
  High: Low: Average:
Temperature: TemperatureF °F /  -17.8 °C 70.2 °F /  21.2 °C 76.9 °F /  24.9 °C
Dew Point: DewpointF °F /  -17.8 °C 40.6 °F /  4.8 °C 42.6 °F /  5.9 °C
Humidity: Humidity% 23% 29%
Wind Speed: WindSpeedMPHmph /  0km/h - -16.2mph /  -26.1km/h
Wind Gust: WindSpeedGustMPHmph /  0km/h - -
Wind- -
Pressure: PressureIn in /  0 hPa 30.09 in /  1018.8 hPa -
Precipitation: 0.00 in /  0 mm    
Historical Graphs
 
 
Tabular Data for January 7, 2018
Time Temperature Dew Point Pressure Wind Wind Speed Wind Gust Humidity Rainfall Rate (Hourly) solar Conditions
TemperatureF °F /  -17.8 °C DewpointF °F /  -17.8 °C PressureInin /  0hPa Calm     Humidity% HourlyPrecipInin /  0mm SoftwareType W/m2 Conditions
08:24 72.0 °F /  22.2 °C 45.0 °F /  7.2 °C 30.11in /  1019.5hPa North -999.9mph /  -1609.1km/h -999.0mph /  -1607.7km/h 38% 0.00in /  0mm meteobridge W/m2
08:26 72.1 °F /  22.3 °C 44.4 °F /  6.9 °C 30.11in /  1019.5hPa North -999.9mph /  -1609.1km/h -999.0mph /  -1607.7km/h 37% 0.00in /  0mm meteobridge W/m2
08:34 72.0 °F /  22.2 °C 44.2 °F /  6.8 °C 30.11in /  1019.5hPa SSE 4.0mph /  6.4km/h 11.0mph /  17.7km/h 37% 0.00in /  0mm meteobridge W/m2
08:40 72.0 °F /  22.2 °C 44.2 °F /  6.8 °C 30.12in /  1019.9hPa North 2.9mph /  4.7km/h 17.0mph /  27.4km/h 37% 0.00in /  0mm meteobridge W/m2
08:46 72.7 °F /  22.6 °C 44.2 °F /  6.8 °C 30.12in /  1019.9hPa North 15.0mph /  24.1km/h 17.0mph /  27.4km/h 36% 0.00in /  0mm meteobridge W/m2
08:52 73.8 °F /  23.2 °C 44.4 °F /  6.9 °C 30.12in /  1019.9hPa North 10.1mph /  16.3km/h 12.0mph /  19.3km/h 35% 0.00in /  0mm meteobridge W/m2
09:02 74.7 °F /  23.7 °C 44.4 °F /  6.9 °C 30.13in /  1020.2hPa South 12.1mph /  19.5km/h 18.0mph /  29km/h 34% 0.00in /  0mm meteobridge W/m2
09:08 74.7 °F /  23.7 °C 43.7 °F /  6.5 °C 30.12in /  1019.9hPa ESE 8.1mph /  13km/h 8.1mph /  13km/h 33% 0.00in /  0mm meteobridge W/m2
09:16 75.9 °F /  24.4 °C 43.9 °F /  6.6 °C 30.12in /  1019.9hPa NNE 2.9mph /  4.7km/h 5.0mph /  8km/h 32% 0.00in /  0mm meteobridge W/m2
09:22 77.7 °F /  25.4 °C 43.9 °F /  6.6 °C 30.12in /  1019.9hPa NNE 6.0mph /  9.7km/h 7.0mph /  11.3km/h 30% 0.00in /  0mm meteobridge W/m2
09:31 78.6 °F /  25.9 °C 42.8 °F /  6 °C 30.12in /  1019.9hPa NNW 15.0mph /  24.1km/h 19.0mph /  30.6km/h 28% 0.00in /  0mm meteobridge W/m2
09:37 77.2 °F /  25.1 °C 41.5 °F /  5.3 °C 30.13in /  1020.2hPa NNW 15.0mph /  24.1km/h 28.0mph /  45.1km/h 28% 0.00in /  0mm meteobridge W/m2
09:43 76.6 °F /  24.8 °C 42.1 °F /  5.6 °C 30.13in /  1020.2hPa NNW 17.0mph /  27.4km/h 17.0mph /  27.4km/h 29% 0.00in /  0mm meteobridge W/m2
09:49 76.5 °F /  24.7 °C 41.9 °F /  5.5 °C 30.13in /  1020.2hPa NNW 13.0mph /  20.9km/h 17.0mph /  27.4km/h 29% 0.00in /  0mm meteobridge W/m2
09:57 77.2 °F /  25.1 °C 41.5 °F /  5.3 °C 30.13in /  1020.2hPa NNW 8.9mph /  14.3km/h 20.0mph /  32.2km/h 28% 0.00in /  0mm meteobridge W/m2
10:03 77.5 °F /  25.3 °C 41.9 °F /  5.5 °C 30.13in /  1020.2hPa NW 10.1mph /  16.3km/h 25.0mph /  40.2km/h 28% 0.00in /  0mm meteobridge W/m2
10:09 77.5 °F /  25.3 °C 41.0 °F /  5 °C 30.13in /  1020.2hPa NNW 16.1mph /  25.9km/h 17.0mph /  27.4km/h 27% 0.00in /  0mm meteobridge W/m2
10:15 78.1 °F /  25.6 °C 41.4 °F /  5.2 °C 30.13in /  1020.2hPa North 6.9mph /  11.1km/h 22.0mph /  35.4km/h 27% 0.00in /  0mm meteobridge W/m2
10:21 79.2 °F /  26.2 °C 41.4 °F /  5.2 °C 30.13in /  1020.2hPa North 17.9mph /  28.8km/h 18.0mph /  29km/h 26% 0.00in /  0mm meteobridge W/m2
10:27 79.5 °F /  26.4 °C 41.5 °F /  5.3 °C 30.13in /  1020.2hPa West 4.9mph /  7.9km/h 9.0mph /  14.5km/h 26% 0.00in /  0mm meteobridge W/m2
10:33 79.2 °F /  26.2 °C 42.3 °F /  5.7 °C 30.13in /  1020.2hPa NNW 19.0mph /  30.6km/h 22.0mph /  35.4km/h 27% 0.00in /  0mm meteobridge W/m2
10:42 77.2 °F /  25.1 °C 40.6 °F /  4.8 °C 30.13in /  1020.2hPa WNW 2.0mph /  3.2km/h 10.0mph /  16.1km/h 27% 0.00in /  0mm meteobridge W/m2
10:48 78.6 °F /  25.9 °C 41.9 °F /  5.5 °C 30.13in /  1020.2hPa North 6.9mph /  11.1km/h 17.0mph /  27.4km/h 27% 0.00in /  0mm meteobridge W/m2
10:56 79.2 °F /  26.2 °C 42.3 °F /  5.7 °C 30.13in /  1020.2hPa NNW 19.9mph /  32km/h 20.0mph /  32.2km/h 27% 0.00in /  0mm meteobridge W/m2
11:18 80.4 °F /  26.9 °C 42.4 °F /  5.8 °C 30.12in /  1019.9hPa NNW 10.1mph /  16.3km/h 24.0mph /  38.6km/h 26% 0.00in /  0mm meteobridge W/m2
11:24 81.0 °F /  27.2 °C 42.8 °F /  6 °C 30.12in /  1019.9hPa WNW 6.0mph /  9.7km/h 18.0mph /  29km/h 26% 0.00in /  0mm meteobridge W/m2
11:32 81.9 °F /  27.7 °C 43.7 °F /  6.5 °C 30.12in /  1019.9hPa South 4.9mph /  7.9km/h 12.0mph /  19.3km/h 26% 0.00in /  0mm meteobridge W/m2
11:38 81.3 °F /  27.4 °C 43.2 °F /  6.2 °C 30.12in /  1019.9hPa South 0.9mph /  1.4km/h 10.0mph /  16.1km/h 26% 0.00in /  0mm meteobridge W/m2
11:40 81.3 °F /  27.4 °C 44.1 °F /  6.7 °C 30.12in /  1019.9hPa South 2.0mph /  3.2km/h 6.0mph /  9.7km/h 27% 0.00in /  0mm meteobridge W/m2
11:47 81.9 °F /  27.7 °C 43.7 °F /  6.5 °C 30.12in /  1019.9hPa NNW 2.0mph /  3.2km/h 9.0mph /  14.5km/h 26% 0.00in /  0mm meteobridge W/m2
11:53 81.5 °F /  27.5 °C 43.3 °F /  6.3 °C 30.11in /  1019.5hPa WNW 4.0mph /  6.4km/h 19.0mph /  30.6km/h 26% 0.00in /  0mm meteobridge W/m2
11:59 81.5 °F /  27.5 °C 43.3 °F /  6.3 °C 30.11in /  1019.5hPa NW 6.9mph /  11.1km/h 21.0mph /  33.8km/h 26% 0.00in /  0mm meteobridge W/m2
12:05 81.1 °F /  27.3 °C 43.0 °F /  6.1 °C 30.11in /  1019.5hPa NNE 6.9mph /  11.1km/h 19.0mph /  30.6km/h 26% 0.00in /  0mm meteobridge W/m2
12:11 81.1 °F /  27.3 °C 43.0 °F /  6.1 °C 30.11in /  1019.5hPa NNW 2.9mph /  4.7km/h 9.0mph /  14.5km/h 26% 0.00in /  0mm meteobridge W/m2
12:13 81.5 °F /  27.5 °C 43.3 °F /  6.3 °C 30.11in /  1019.5hPa NW 2.9mph /  4.7km/h 9.0mph /  14.5km/h 26% 0.00in /  0mm meteobridge W/m2
12:23 82.2 °F /  27.9 °C 43.9 °F /  6.6 °C 30.11in /  1019.5hPa NE 0.9mph /  1.4km/h 12.0mph /  19.3km/h 26% 0.00in /  0mm meteobridge W/m2
12:32 82.0 °F /  27.8 °C 43.7 °F /  6.5 °C 30.11in /  1019.5hPa North 8.9mph /  14.3km/h 11.0mph /  17.7km/h 26% 0.00in /  0mm meteobridge W/m2
12:40 83.5 °F /  28.6 °C 43.9 °F /  6.6 °C 30.11in /  1019.5hPa WNW 2.0mph /  3.2km/h 13.0mph /  20.9km/h 25% 0.00in /  0mm meteobridge W/m2
12:46 83.3 °F /  28.5 °C 42.8 °F /  6 °C 30.10in /  1019.2hPa North 15.0mph /  24.1km/h 18.0mph /  29km/h 24% 0.00in /  0mm meteobridge W/m2
12:54 83.8 °F /  28.8 °C 43.2 °F /  6.2 °C 30.10in /  1019.2hPa NNE 6.9mph /  11.1km/h 21.0mph /  33.8km/h 24% 0.00in /  0mm meteobridge W/m2
13:00 84.7 °F /  29.3 °C 42.8 °F /  6 °C 30.10in /  1019.2hPa SSE 4.0mph /  6.4km/h 5.0mph /  8km/h 23% 0.00in /  0mm meteobridge W/m2
13:11 83.5 °F /  28.6 °C 41.7 °F /  5.4 °C 30.09in /  1018.8hPa NW 2.9mph /  4.7km/h 9.0mph /  14.5km/h 23% 0.00in /  0mm meteobridge W/m2
13:17 82.9 °F /  28.3 °C 41.4 °F /  5.2 °C 30.09in /  1018.8hPa North 6.0mph /  9.7km/h 10.0mph /  16.1km/h 23% 0.00in /  0mm meteobridge W/m2
13:27 82.9 °F /  28.3 °C 41.4 °F /  5.2 °C 30.09in /  1018.8hPa NNW 2.9mph /  4.7km/h 14.0mph /  22.5km/h 23% 0.00in /  0mm meteobridge W/m2
13:33 82.0 °F /  27.8 °C 41.7 °F /  5.4 °C 30.09in /  1018.8hPa WSW 4.9mph /  7.9km/h 6.0mph /  9.7km/h 24% 0.00in /  0mm meteobridge W/m2
13:41 80.8 °F /  27.1 °C 40.6 °F /  4.8 °C 30.09in /  1018.8hPa North 4.9mph /  7.9km/h 16.0mph /  25.7km/h 24% 0.00in /  0mm meteobridge W/m2
13:47 80.2 °F /  26.8 °C 41.2 °F /  5.1 °C 30.09in /  1018.8hPa NNE 6.9mph /  11.1km/h 14.0mph /  22.5km/h 25% 0.00in /  0mm meteobridge W/m2
13:54 79.7 °F /  26.5 °C 41.7 °F /  5.4 °C 30.09in /  1018.8hPa North 12.1mph /  19.5km/h 18.0mph /  29km/h 26% 0.00in /  0mm meteobridge W/m2
14:00 78.6 °F /  25.9 °C 40.8 °F /  4.9 °C 30.09in /  1018.8hPa NNW 16.1mph /  25.9km/h 16.1mph /  25.9km/h 26% 0.00in /  0mm meteobridge W/m2
14:05 78.6 °F /  25.9 °C 41.9 °F /  5.5 °C 30.10in /  1019.2hPa North 4.0mph /  6.4km/h 11.0mph /  17.7km/h 27% 0.00in /  0mm meteobridge W/m2
14:18 75.6 °F /  24.2 °C 42.8 °F /  6 °C 30.12in /  1019.9hPa NNE 0.9mph /  1.4km/h 12.0mph /  19.3km/h 31% 0.00in /  0mm meteobridge W/m2
14:26 74.8 °F /  23.8 °C 43.9 °F /  6.6 °C 30.13in /  1020.2hPa North 4.9mph /  7.9km/h 16.0mph /  25.7km/h 33% 0.00in /  0mm meteobridge W/m2
14:34 74.5 °F /  23.6 °C 45.0 °F /  7.2 °C 30.15in /  1020.9hPa NE 10.1mph /  16.3km/h 10.1mph /  16.3km/h 35% 0.00in /  0mm meteobridge W/m2
14:42 73.0 °F /  22.8 °C 43.7 °F /  6.5 °C 30.15in /  1020.9hPa North 4.0mph /  6.4km/h 7.0mph /  11.3km/h 35% 0.00in /  0mm meteobridge W/m2
14:48 73.4 °F /  23 °C 46.2 °F /  7.9 °C 30.13in /  1020.2hPa South 4.9mph /  7.9km/h 7.0mph /  11.3km/h 38% 0.00in /  0mm meteobridge W/m2
14:57 73.9 °F /  23.3 °C 45.3 °F /  7.4 °C 30.12in /  1019.9hPa SE 4.9mph /  7.9km/h 10.0mph /  16.1km/h 36% 0.00in /  0mm meteobridge W/m2
15:03 74.7 °F /  23.7 °C 43.7 °F /  6.5 °C 30.11in /  1019.5hPa SE 0.9mph /  1.4km/h 5.0mph /  8km/h 33% 0.00in /  0mm meteobridge W/m2
15:09 76.3 °F /  24.6 °C 45.1 °F /  7.3 °C 30.10in /  1019.2hPa SE 2.0mph /  3.2km/h 3.0mph /  4.8km/h 33% 0.00in /  0mm meteobridge W/m2
15:17 80.2 °F /  26.8 °C 44.2 °F /  6.8 °C 30.10in /  1019.2hPa ENE 6.9mph /  11.1km/h 11.0mph /  17.7km/h 28% 0.00in /  0mm meteobridge W/m2
15:25 80.2 °F /  26.8 °C 43.2 °F /  6.2 °C 30.10in /  1019.2hPa NNE 6.9mph /  11.1km/h 13.0mph /  20.9km/h 27% 0.00in /  0mm meteobridge W/m2
15:31 79.9 °F /  26.6 °C 43.0 °F /  6.1 °C 30.10in /  1019.2hPa NNE 6.0mph /  9.7km/h 13.0mph /  20.9km/h 27% 0.00in /  0mm meteobridge W/m2
15:37 79.0 °F /  26.1 °C 43.2 °F /  6.2 °C 30.10in /  1019.2hPa NE 4.9mph /  7.9km/h 6.0mph /  9.7km/h 28% 0.00in /  0mm meteobridge W/m2
15:43 79.0 °F /  26.1 °C 43.2 °F /  6.2 °C 30.10in /  1019.2hPa ENE 2.0mph /  3.2km/h 2.0mph /  3.2km/h 28% 0.00in /  0mm meteobridge W/m2
15:52 79.0 °F /  26.1 °C 42.1 °F /  5.6 °C 30.10in /  1019.2hPa North 0.9mph /  1.4km/h 7.0mph /  11.3km/h 27% 0.00in /  0mm meteobridge W/m2
15:58 79.0 °F /  26.1 °C 42.1 °F /  5.6 °C 30.11in /  1019.5hPa NNE 2.0mph /  3.2km/h 10.0mph /  16.1km/h 27% 0.00in /  0mm meteobridge W/m2
16:04 79.0 °F /  26.1 °C 42.1 °F /  5.6 °C 30.10in /  1019.2hPa Calm   2.0mph /  3.2km/h 27% 0.00in /  0mm meteobridge W/m2
16:30 79.3 °F /  26.3 °C 42.4 °F /  5.8 °C 30.09in /  1018.8hPa NNE 6.9mph /  11.1km/h 14.0mph /  22.5km/h 27% 0.00in /  0mm meteobridge W/m2
16:37 79.3 °F /  26.3 °C 41.5 °F /  5.3 °C 30.09in /  1018.8hPa NNW 4.0mph /  6.4km/h 10.0mph /  16.1km/h 26% 0.00in /  0mm meteobridge W/m2
16:43 79.2 °F /  26.2 °C 42.3 °F /  5.7 °C 30.09in /  1018.8hPa Calm   9.0mph /  14.5km/h 27% 0.00in /  0mm meteobridge W/m2
16:45 79.0 °F /  26.1 °C 42.1 °F /  5.6 °C 30.09in /  1018.8hPa NNW 8.1mph /  13km/h 13.0mph /  20.9km/h 27% 0.00in /  0mm meteobridge W/m2
16:51 78.6 °F /  25.9 °C 40.8 °F /  4.9 °C 30.09in /  1018.8hPa NNW 6.0mph /  9.7km/h 9.0mph /  14.5km/h 26% 0.00in /  0mm meteobridge W/m2
16:57 78.4 °F /  25.8 °C 41.7 °F /  5.4 °C 30.09in /  1018.8hPa WNW 2.9mph /  4.7km/h 11.0mph /  17.7km/h 27% 0.00in /  0mm meteobridge W/m2
17:05 78.1 °F /  25.6 °C 42.3 °F /  5.7 °C 30.09in /  1018.8hPa South 4.9mph /  7.9km/h 5.0mph /  8km/h 28% 0.00in /  0mm meteobridge W/m2
17:11 77.2 °F /  25.1 °C 42.4 °F /  5.8 °C 30.09in /  1018.8hPa South 14.1mph /  22.7km/h 19.0mph /  30.6km/h 29% 0.00in /  0mm meteobridge W/m2
17:17 76.5 °F /  24.7 °C 44.4 °F /  6.9 °C 30.10in /  1019.2hPa SE 13.0mph /  20.9km/h 15.0mph /  24.1km/h 32% 0.00in /  0mm meteobridge W/m2
17:24 75.9 °F /  24.4 °C 43.9 °F /  6.6 °C 30.11in /  1019.5hPa SSE 8.9mph /  14.3km/h 13.0mph /  20.9km/h 32% 0.00in /  0mm meteobridge W/m2
17:30 75.4 °F /  24.1 °C 46.6 °F /  8.1 °C 30.11in /  1019.5hPa SSE 8.9mph /  14.3km/h 14.0mph /  22.5km/h 36% 0.00in /  0mm meteobridge W/m2
17:36 74.5 °F /  23.6 °C 45.9 °F /  7.7 °C 30.11in /  1019.5hPa SSE 11.0mph /  17.7km/h 16.0mph /  25.7km/h 36% 0.00in /  0mm meteobridge W/m2
17:42 73.0 °F /  22.8 °C 45.1 °F /  7.3 °C 30.11in /  1019.5hPa South 6.0mph /  9.7km/h 16.0mph /  25.7km/h 37% 0.00in /  0mm meteobridge W/m2
17:48 72.7 °F /  22.6 °C 45.0 °F /  7.2 °C 30.12in /  1019.9hPa SSE 6.0mph /  9.7km/h 13.0mph /  20.9km/h 37% 0.00in /  0mm meteobridge W/m2
17:58 72.0 °F /  22.2 °C 45.0 °F /  7.2 °C 30.12in /  1019.9hPa South 11.0mph /  17.7km/h 16.0mph /  25.7km/h 38% 0.00in /  0mm meteobridge W/m2
18:06 71.2 °F /  21.8 °C 45.0 °F /  7.2 °C 30.12in /  1019.9hPa SSW 11.0mph /  17.7km/h 17.0mph /  27.4km/h 39% 0.00in /  0mm meteobridge W/m2
18:12 70.9 °F /  21.6 °C 45.3 °F /  7.4 °C 30.12in /  1019.9hPa SE 10.1mph /  16.3km/h 18.0mph /  29km/h 40% 0.00in /  0mm meteobridge W/m2
18:21 70.3 °F /  21.3 °C 45.5 °F /  7.5 °C 30.13in /  1020.2hPa SSE 15.0mph /  24.1km/h 21.0mph /  33.8km/h 41% 0.00in /  0mm meteobridge W/m2
18:29 70.2 °F /  21.2 °C 45.3 °F /  7.4 °C 30.13in /  1020.2hPa SSE 13.0mph /  20.9km/h 13.0mph /  20.9km/h 41% 0.00in /  0mm meteobridge W/m2
Regenstein, Windhoek, Namibia
Compliments of Weather Underground - 2.5 mb